Seabulk Challenge — KNJL — position and weather

sailwx.info

Track history (hours):
 
Tides and Currents Weather Stations Pressure Air Temp Water Temp Dewpoint Dewpoint Depression Visibility Wind Speed Wind Dir Waves Ship Positions

Seabulk Challenge

Owner: Seabulk Tankers, Inc., Fort Lauderdale, FL. More information available from US FCC via Universal Licensing System and Coast Guard Vessel Documentation Center.

Last reported at 2016-May-29 08:31 UTC. Time now 2016-May-30 16:29 UTC.
Position N 27°57' W 082°27'.

Length 192 m; draft 7.9 m.

Type: Tanker. MMSI: 303104000.

Date/timePositionNaut miles runAvg speedWind from/ knotsBaromVisibWave heightAir tempDewpointWater temp
2016-May-29 08:31N 27°57' W 082°27'0 0.0
2016-May-29 07:31N 27°57' W 082°27'0 0.0
2016-May-29 06:31N 27°57' W 082°27'0 0.0
2016-May-29 05:31N 27°57' W 082°27'0 0.0
2016-May-29 04:31N 27°57' W 082°27'0 0.0
2016-May-29 03:31N 27°57' W 082°27'2 1.6
2016-May-29 02:33N 27°56' W 082°27'8 7.8
2016-May-29 01:33N 27°48' W 082°29'1211.8
2016-May-29 00:33N 27°39' W 082°37'  
2016-May-25 18:16N 25°38' W 079°58'810.5
2016-May-25 17:33N 25°46' W 079°56'1010.2
2016-May-25 16:34N 25°56' W 079°54'1010.0
2016-May-25 15:33N 26°06' W 079°52'1010.4
2016-May-25 14:33N 26°16' W 079°49'10 9.9
2016-May-25 13:33N 26°25' W 079°47'10 9.8
2016-May-25 12:33N 26°35' W 079°45'1010.3
2016-May-25 11:33N 26°45' W 079°43'1110.7
2016-May-25 10:33N 26°56' W 079°41'1111.1
2016-May-25 09:33N 27°07' W 079°39'3 0.1
2016-May-24 10:33N 27°03' W 079°40'2017.5
2016-May-24 09:25N 26°44' W 079°46'1517.5
2016-May-24 08:33N 26°30' W 079°52'1717.2
2016-May-24 07:34N 26°14' W 079°57'8 7.5
2016-May-24 06:33N 26°07' W 080°01'9 9.1
2016-May-24 05:33N 26°15' W 079°56'1211.9
2016-May-24 04:33N 26°27' W 079°53'1212.0
2016-May-24 03:34N 26°38' W 079°50'1211.7
2016-May-24 02:33N 26°50' W 079°47'1211.7
2016-May-24 01:33N 27°01' W 079°43'2 0.1
2016-May-22 19:07N 27°03' W 079°42'1017.8
2016-May-22 18:33N 26°53' W 079°45'1817.9
2016-May-22 17:34N 26°36' W 079°50'1817.5
2016-May-22 16:33N 26°19' W 079°57'1313.5
2016-May-22 15:34N 26°06' W 080°01'8 8.5
2016-May-22 14:34N 26°08' W 079°52'1010.3
2016-May-22 13:34N 26°12' W 079°41'1110.8
2016-May-22 12:34N 26°15' W 079°30'1511.7
2016-May-22 11:19N 26°20' W 079°14'2 0.2
2016-May-22 05:06N 26°21' W 079°13'1 1.3
2016-May-22 04:33N 26°21' W 079°13'5 4.9
2016-May-22 03:33N 26°19' W 079°08'1 1.3
2016-May-22 02:33N 26°20' W 079°07'1 1.2
2016-May-22 01:33N 26°20' W 079°08'1 1.0
2016-May-22 00:33N 26°20' W 079°09'1 1.1
2016-May-21 23:33N 26°20' W 079°10'2 2.1
2016-May-21 22:25N 26°19' W 079°08'1 0.2
2016-May-21 20:13N 26°19' W 079°08'3 4.4
2016-May-21 19:26N 26°22' W 079°06'23 3.9
2016-May-21 13:33N 26°16' W 079°31'1313.4
2016-May-21 12:33N 26°13' W 079°45'1413.5
2016-May-21 11:33N 26°09' W 079°60'3 3.2
2016-May-21 10:33N 26°11' W 079°57'7 6.9
2016-May-21 09:33N 26°17' W 079°54'1211.7
2016-May-21 08:33N 26°28' W 079°51'1110.9
2016-May-21 07:33N 26°39' W 079°47'1110.1
2016-May-21 06:30N 26°49' W 079°44'  
Track history (hours):
 
Tides and Currents Weather Stations Pressure Air Temp Water Temp Dewpoint Dewpoint Depression Visibility Wind Speed Wind Dir Waves Ship Positions

Seabulk Challenge

Owner: Seabulk Tankers, Inc., Fort Lauderdale, FL. More information available from US FCC via Universal Licensing System and Coast Guard Vessel Documentation Center.

Last reported at 2016-May-29 08:31 UTC. Time now 2016-May-30 16:29 UTC.
Position N 27°57' W 082°27'.

Length 192 m; draft 7.9 m.

Type: Tanker. MMSI: 303104000.

Date/timePositionNaut miles runAvg speedWind from/ knotsBaromVisibWave heightAir tempDewpointWater temp
2016-May-29 08:31N 27°57' W 082°27'0 0.0
2016-May-29 07:31N 27°57' W 082°27'0 0.0
2016-May-29 06:31N 27°57' W 082°27'0 0.0
2016-May-29 05:31N 27°57' W 082°27'0 0.0
2016-May-29 04:31N 27°57' W 082°27'0 0.0
2016-May-29 03:31N 27°57' W 082°27'2 1.6
2016-May-29 02:33N 27°56' W 082°27'8 7.8
2016-May-29 01:33N 27°48' W 082°29'1211.8
2016-May-29 00:33N 27°39' W 082°37'  
2016-May-25 18:16N 25°38' W 079°58'810.5
2016-May-25 17:33N 25°46' W 079°56'1010.2
2016-May-25 16:34N 25°56' W 079°54'1010.0
2016-May-25 15:33N 26°06' W 079°52'1010.4
2016-May-25 14:33N 26°16' W 079°49'10 9.9
2016-May-25 13:33N 26°25' W 079°47'10 9.8
2016-May-25 12:33N 26°35' W 079°45'1010.3
2016-May-25 11:33N 26°45' W 079°43'1110.7
2016-May-25 10:33N 26°56' W 079°41'1111.1
2016-May-25 09:33N 27°07' W 079°39'3 0.1
2016-May-24 10:33N 27°03' W 079°40'2017.5
2016-May-24 09:25N 26°44' W 079°46'1517.5
2016-May-24 08:33N 26°30' W 079°52'1717.2
2016-May-24 07:34N 26°14' W 079°57'8 7.5
2016-May-24 06:33N 26°07' W 080°01'9 9.1
2016-May-24 05:33N 26°15' W 079°56'1211.9
2016-May-24 04:33N 26°27' W 079°53'1212.0
2016-May-24 03:34N 26°38' W 079°50'1211.7
2016-May-24 02:33N 26°50' W 079°47'1211.7
2016-May-24 01:33N 27°01' W 079°43'2 0.1
2016-May-22 19:07N 27°03' W 079°42'1017.8
2016-May-22 18:33N 26°53' W 079°45'1817.9
2016-May-22 17:34N 26°36' W 079°50'1817.5
2016-May-22 16:33N 26°19' W 079°57'1313.5
2016-May-22 15:34N 26°06' W 080°01'8 8.5
2016-May-22 14:34N 26°08' W 079°52'1010.3
2016-May-22 13:34N 26°12' W 079°41'1110.8
2016-May-22 12:34N 26°15' W 079°30'1511.7
2016-May-22 11:19N 26°20' W 079°14'2 0.2
2016-May-22 05:06N 26°21' W 079°13'1 1.3
2016-May-22 04:33N 26°21' W 079°13'5 4.9
2016-May-22 03:33N 26°19' W 079°08'1 1.3
2016-May-22 02:33N 26°20' W 079°07'1 1.2
2016-May-22 01:33N 26°20' W 079°08'1 1.0
2016-May-22 00:33N 26°20' W 079°09'1 1.1
2016-May-21 23:33N 26°20' W 079°10'2 2.1
2016-May-21 22:25N 26°19' W 079°08'1 0.2
2016-May-21 20:13N 26°19' W 079°08'3 4.4
2016-May-21 19:26N 26°22' W 079°06'23 3.9
2016-May-21 13:33N 26°16' W 079°31'1313.4
2016-May-21 12:33N 26°13' W 079°45'1413.5
2016-May-21 11:33N 26°09' W 079°60'3 3.2
2016-May-21 10:33N 26°11' W 079°57'7 6.9
2016-May-21 09:33N 26°17' W 079°54'1211.7
2016-May-21 08:33N 26°28' W 079°51'1110.9
2016-May-21 07:33N 26°39' W 079°47'1110.1
2016-May-21 06:30N 26°49' W 079°44'  

Dump ship's entire track history